createdAt,value
2023-01-19T00:02:23.971Z,87.43
2023-01-19T00:04:50.369Z,87.24
2023-01-19T00:07:17.049Z,87.34
2023-01-19T00:09:43.701Z,87.67
2023-01-19T00:12:10.269Z,87.59
2023-01-19T00:14:36.931Z,87.63
2023-01-19T00:17:03.374Z,87.54
2023-01-19T00:19:30.135Z,88.01
2023-01-19T00:21:56.482Z,88.11
2023-01-19T00:24:22.795Z,88.08
2023-01-19T00:26:49.191Z,88.05
2023-01-19T00:29:15.820Z,88.18
2023-01-19T00:31:42.209Z,88.52
2023-01-19T00:34:08.762Z,88.66
2023-01-19T00:36:35.187Z,89.11
2023-01-19T00:39:01.799Z,88.56
2023-01-19T00:41:47.290Z,88.57
2023-01-19T00:44:13.669Z,88.61
2023-01-19T00:46:39.986Z,88.82
2023-01-19T00:49:06.587Z,88.58
2023-01-19T00:51:33.267Z,89.11
2023-01-19T00:54:04.893Z,89.07
2023-01-19T00:56:31.745Z,88.95
2023-01-19T00:58:58.143Z,88.90
2023-01-19T01:01:45.579Z,89.09
2023-01-19T01:04:13.557Z,88.98
2023-01-19T01:06:40.161Z,89.29
2023-01-19T01:09:11.756Z,89.25
2023-01-19T01:11:39.647Z,89.43
2023-01-19T01:14:06.541Z,89.35
2023-01-19T01:16:33.539Z,89.26
2023-01-19T01:19:00.205Z,89.13
2023-01-19T01:21:27.185Z,89.10
2023-01-19T01:23:53.557Z,89.57
2023-01-19T01:26:19.944Z,89.36
2023-01-19T01:28:46.651Z,89.62
2023-01-19T01:31:13.118Z,89.31
2023-01-19T01:33:40.821Z,89.78
2023-01-19T01:36:09.174Z,89.60
2023-01-19T01:38:35.568Z,89.60
2023-01-19T01:41:02.012Z,89.39
2023-01-19T01:43:41.680Z,89.19
2023-01-19T01:46:08.317Z,89.33
2023-01-19T01:48:36.434Z,89.46
2023-01-19T01:51:24.039Z,89.55
2023-01-19T01:54:19.744Z,89.39
2023-01-19T01:56:47.728Z,89.72
2023-01-19T01:59:25.697Z,89.23
2023-01-19T02:02:12.443Z,89.22
2023-01-19T02:04:39.856Z,89.11
2023-01-19T02:07:25.024Z,89.40
2023-01-19T02:10:10.028Z,89.70
2023-01-19T02:12:55.227Z,89.68
2023-01-19T02:15:21.617Z,89.83
2023-01-19T02:17:48.356Z,89.72
2023-01-19T02:20:15.063Z,89.29
2023-01-19T02:22:47.460Z,89.19
2023-01-19T02:25:14.198Z,89.56
2023-01-19T02:27:40.805Z,89.05
2023-01-19T02:30:07.739Z,88.96
2023-01-19T02:32:34.469Z,89.30
2023-01-19T02:35:00.953Z,89.33
2023-01-19T02:37:29.047Z,89.03
2023-01-19T02:39:57.570Z,88.96
2023-01-19T02:42:27.275Z,88.83
2023-01-19T02:44:55.001Z,89.09
2023-01-19T02:47:21.451Z,88.99
2023-01-19T02:49:57.758Z,89.10
2023-01-19T02:52:24.507Z,89.06
2023-01-19T02:54:56.829Z,88.86
2023-01-19T02:57:35.163Z,89.22
2023-01-19T03:00:01.571Z,89.00
2023-01-19T03:02:35.922Z,89.48
2023-01-19T03:05:33.428Z,89.59
2023-01-19T03:08:00.038Z,89.49
2023-01-19T03:10:32.194Z,89.49
2023-01-19T03:13:10.384Z,89.49
2023-01-19T03:15:43.706Z,89.61
2023-01-19T03:18:12.392Z,89.74
2023-01-19T03:20:40.130Z,89.48
2023-01-19T03:23:08.781Z,89.39
2023-01-19T03:25:37.122Z,89.66
2023-01-19T03:28:04.036Z,89.63
2023-01-19T03:30:39.221Z,89.84
2023-01-19T03:33:09.251Z,89.52
2023-01-19T03:35:36.998Z,90.05
2023-01-19T03:38:05.641Z,90.07
2023-01-19T03:40:33.314Z,90.12
2023-01-19T03:43:01.265Z,89.85
2023-01-19T03:45:28.053Z,89.73
2023-01-19T03:47:54.955Z,89.77
2023-01-19T03:50:24.820Z,90.32
2023-01-19T03:53:09.087Z,89.82
2023-01-19T03:55:36.901Z,90.34
2023-01-19T03:58:03.416Z,90.30
2023-01-19T04:00:29.853Z,90.54
2023-01-19T04:02:56.169Z,89.99
2023-01-19T04:05:22.556Z,90.37
2023-01-19T04:07:52.348Z,89.75
2023-01-19T04:10:19.082Z,90.21
2023-01-19T04:12:45.806Z,89.58
2023-01-19T04:15:12.556Z,89.50
2023-01-19T04:17:39.283Z,89.59
2023-01-19T04:20:06.441Z,89.49
2023-01-19T04:22:32.911Z,89.60
2023-01-19T04:24:59.356Z,90.59
2023-01-19T04:27:26.066Z,90.29
2023-01-19T04:29:52.496Z,90.90
2023-01-19T04:32:18.830Z,90.43
2023-01-19T04:34:45.181Z,90.79
2023-01-19T04:37:11.569Z,90.73
2023-01-19T04:39:37.896Z,90.76
2023-01-19T04:42:04.309Z,90.15
2023-01-19T04:44:30.669Z,90.52
2023-01-19T04:46:57.102Z,90.75
2023-01-19T04:49:23.881Z,90.42
2023-01-19T04:51:53.480Z,90.67
2023-01-19T04:54:22.786Z,90.12
2023-01-19T04:56:49.369Z,90.28
2023-01-19T04:59:15.790Z,89.50
2023-01-19T05:01:42.165Z,89.91
2023-01-19T05:04:09.150Z,89.18
2023-01-19T05:06:35.530Z,89.30
2023-01-19T05:09:01.975Z,89.34
2023-01-19T05:11:28.309Z,88.96
2023-01-19T05:13:54.694Z,89.29
2023-01-19T05:16:21.114Z,89.82
2023-01-19T05:18:47.575Z,89.43
2023-01-19T05:21:13.943Z,89.85
2023-01-19T05:23:41.149Z,89.04
2023-01-19T05:26:09.490Z,89.40
2023-01-19T05:28:36.131Z,89.01
2023-01-19T05:31:02.570Z,88.94
2023-01-19T05:33:29.083Z,88.42
2023-01-19T05:35:55.485Z,88.45
2023-01-19T05:38:34.331Z,88.03
2023-01-19T05:41:01.472Z,88.25
2023-01-19T05:43:27.859Z,87.83
2023-01-19T05:45:54.203Z,87.38
2023-01-19T05:48:20.550Z,87.36
2023-01-19T05:50:49.294Z,86.91
2023-01-19T05:53:16.406Z,86.75
2023-01-19T05:55:43.030Z,86.56
2023-01-19T05:58:09.563Z,86.87
2023-01-19T06:00:36.061Z,86.36
2023-01-19T06:03:03.064Z,85.82
2023-01-19T06:05:29.872Z,85.04
2023-01-19T06:07:57.069Z,84.98
2023-01-19T06:10:23.556Z,85.07
2023-01-19T06:12:50.177Z,84.86
2023-01-19T06:15:16.894Z,84.64
2023-01-19T06:17:43.329Z,83.78
2023-01-19T06:20:10.142Z,83.70
2023-01-19T06:22:36.689Z,83.82
2023-01-19T06:25:03.031Z,83.61
2023-01-19T06:27:29.356Z,83.19
2023-01-19T06:29:56.025Z,83.13
2023-01-19T06:32:22.430Z,82.95
2023-01-19T06:34:48.774Z,83.10
2023-01-19T06:37:16.720Z,83.11
2023-01-19T06:39:45.114Z,83.60
2023-01-19T06:42:11.645Z,83.30
2023-01-19T06:44:38.171Z,82.75
2023-01-19T06:47:14.942Z,82.39
2023-01-19T06:49:42.234Z,82.70
2023-01-19T06:52:09.531Z,83.27
2023-01-19T06:54:35.944Z,83.21
2023-01-19T06:57:02.821Z,83.00
2023-01-19T06:59:29.937Z,83.49
2023-01-19T07:01:56.948Z,83.49
2023-01-19T07:04:23.446Z,84.22
2023-01-19T07:06:50.106Z,83.97
2023-01-19T07:09:17.097Z,84.46
2023-01-19T07:11:43.496Z,84.46
2023-01-19T07:14:09.912Z,84.42
2023-01-19T07:16:36.312Z,84.47
2023-01-19T07:19:02.681Z,84.03
2023-01-19T07:21:29.456Z,84.46
2023-01-19T07:23:55.945Z,84.02
2023-01-19T07:26:24.912Z,83.32
2023-01-19T07:28:52.096Z,83.37
2023-01-19T07:31:19.080Z,82.92
2023-01-19T07:33:46.084Z,83.20
2023-01-19T07:36:12.704Z,82.50
2023-01-19T07:38:39.104Z,82.35
2023-01-19T07:41:06.824Z,81.84
2023-01-19T07:43:33.962Z,81.93
2023-01-19T07:46:01.364Z,81.99
2023-01-19T07:48:28.189Z,81.18
2023-01-19T07:50:59.370Z,81.64
2023-01-19T07:53:25.799Z,81.69
2023-01-19T07:55:56.697Z,80.94
2023-01-19T07:58:23.630Z,81.18
2023-01-19T08:00:50.726Z,81.01
2023-01-19T08:03:17.792Z,80.61
2023-01-19T08:05:44.659Z,80.60
2023-01-19T08:08:12.690Z,81.06
2023-01-19T08:10:39.070Z,80.28
2023-01-19T08:13:05.562Z,80.26
2023-01-19T08:15:31.996Z,80.96
2023-01-19T08:17:59.454Z,81.05
2023-01-19T08:20:26.000Z,80.32
2023-01-19T08:22:59.845Z,80.72
2023-01-19T08:25:27.390Z,80.77
2023-01-19T08:27:54.658Z,80.91
2023-01-19T08:30:21.868Z,80.86
2023-01-19T08:32:48.514Z,81.08
2023-01-19T08:35:15.677Z,80.93
2023-01-19T08:37:42.063Z,81.01
2023-01-19T08:40:08.902Z,81.65
2023-01-19T08:42:35.245Z,81.49
2023-01-19T08:45:01.639Z,81.54
2023-01-19T08:47:28.275Z,81.72
2023-01-19T08:49:54.825Z,80.97
2023-01-19T08:52:21.207Z,81.77
2023-01-19T08:54:47.647Z,81.25
2023-01-19T08:57:15.355Z,81.30
2023-01-19T08:59:47.294Z,81.04
2023-01-19T09:02:13.670Z,81.26
2023-01-19T09:04:40.067Z,81.40
2023-01-19T09:09:39.636Z,80.93
2023-01-19T09:12:06.085Z,81.73
2023-01-19T09:14:32.513Z,81.28
2023-01-19T09:16:59.167Z,81.77
2023-01-19T09:19:25.573Z,81.82
2023-01-19T09:21:53.314Z,81.74
2023-01-19T09:24:19.659Z,80.74
2023-01-19T09:26:46.255Z,80.42
2023-01-19T09:29:12.759Z,80.16
2023-01-19T09:31:40.152Z,80.20
2023-01-19T09:34:06.677Z,79.12
2023-01-19T09:36:33.093Z,79.05
2023-01-19T09:38:59.469Z,79.14
2023-01-19T09:41:26.362Z,78.89
2023-01-19T09:43:56.100Z,78.15
2023-01-19T09:46:25.344Z,77.91
2023-01-19T09:48:53.006Z,77.90
2023-01-19T09:51:21.787Z,77.11
2023-01-19T09:53:51.368Z,76.54
2023-01-19T09:56:19.401Z,76.90
2023-01-19T09:58:46.796Z,76.56
2023-01-19T10:01:34.621Z,76.08
2023-01-19T10:04:16.240Z,76.60
2023-01-19T10:06:43.318Z,75.25
2023-01-19T10:09:24.741Z,75.74
2023-01-19T10:12:19.780Z,75.06
2023-01-19T10:14:49.953Z,74.28
2023-01-19T10:17:21.298Z,73.51
2023-01-19T10:19:50.005Z,73.44
2023-01-19T10:22:21.651Z,73.13
2023-01-19T10:24:50.350Z,72.51
2023-01-19T10:27:17.902Z,70.63
2023-01-19T10:29:45.082Z,71.01
2023-01-19T10:32:14.793Z,69.21
2023-01-19T10:34:41.760Z,69.58
2023-01-19T10:37:17.245Z,68.26
2023-01-19T10:39:52.249Z,67.93
2023-01-19T10:42:18.934Z,67.41
2023-01-19T10:44:45.876Z,66.55
2023-01-19T10:47:16.593Z,67.12
2023-01-19T10:49:43.181Z,66.15
2023-01-19T10:52:28.883Z,65.92
2023-01-19T10:54:55.673Z,65.38
2023-01-19T10:57:32.910Z,64.31
2023-01-19T10:59:59.345Z,64.33
2023-01-19T11:02:27.695Z,63.70
2023-01-19T11:04:58.697Z,64.04
2023-01-19T11:07:27.837Z,63.55
2023-01-19T11:10:12.912Z,62.61
2023-01-19T11:12:43.325Z,61.75
2023-01-19T11:15:23.380Z,62.07
2023-01-19T11:17:50.364Z,61.13
2023-01-19T11:20:24.809Z,60.48
2023-01-19T11:23:05.235Z,59.96
2023-01-19T11:25:33.301Z,59.75
2023-01-19T11:28:00.300Z,58.63
2023-01-19T11:30:26.805Z,58.48
2023-01-19T11:32:53.144Z,57.95
2023-01-19T11:35:33.906Z,57.38
2023-01-19T11:38:07.083Z,58.33
2023-01-19T11:40:34.770Z,58.05
2023-01-19T11:43:01.675Z,57.61
2023-01-19T11:45:28.365Z,57.31
2023-01-19T11:47:56.964Z,57.29
2023-01-19T11:50:23.505Z,56.23
2023-01-19T11:52:57.737Z,56.86
2023-01-19T11:55:30.007Z,55.49
2023-01-19T11:57:56.378Z,55.53
2023-01-19T12:00:29.070Z,55.27
2023-01-19T12:02:58.570Z,56.15
2023-01-19T12:05:27.652Z,56.00
2023-01-19T12:07:54.811Z,55.53
2023-01-19T12:10:29.276Z,54.18
2023-01-19T12:12:56.402Z,54.52
2023-01-19T12:15:26.628Z,54.39
2023-01-19T12:17:54.500Z,53.58
2023-01-19T12:20:23.579Z,52.74
2023-01-19T12:22:52.282Z,52.18
2023-01-19T12:25:22.760Z,52.23
2023-01-19T12:27:50.022Z,53.21
2023-01-19T12:30:17.142Z,53.47
2023-01-19T12:32:44.017Z,52.56
2023-01-19T12:35:30.935Z,51.79
2023-01-19T12:37:57.807Z,51.37
2023-01-19T12:40:24.123Z,51.58
2023-01-19T12:42:55.826Z,52.24
2023-01-19T12:45:25.451Z,52.24
2023-01-19T12:47:55.745Z,53.21
2023-01-19T12:50:25.573Z,53.42
2023-01-19T12:53:02.654Z,54.01
2023-01-19T12:55:30.992Z,54.64
2023-01-19T12:58:00.492Z,55.53
2023-01-19T13:00:31.348Z,55.71
2023-01-19T13:02:59.107Z,56.55
2023-01-19T13:05:25.581Z,57.25
2023-01-19T13:08:07.755Z,57.46
2023-01-19T13:11:13.768Z,58.06
2023-01-19T13:13:40.133Z,58.51
2023-01-19T13:16:18.666Z,59.21
2023-01-19T13:18:45.102Z,59.14
2023-01-19T13:21:12.030Z,59.20
2023-01-19T13:23:47.606Z,59.04
2023-01-19T13:26:15.538Z,58.98
2023-01-19T13:28:43.257Z,59.16
2023-01-19T13:31:10.384Z,59.30
2023-01-19T13:33:41.089Z,58.68
2023-01-19T13:36:15.227Z,59.09
2023-01-19T13:38:42.722Z,59.36
2023-01-19T13:41:09.274Z,57.52
2023-01-19T13:43:37.436Z,55.89
2023-01-19T13:46:04.193Z,54.34
2023-01-19T13:48:31.032Z,53.31
2023-01-19T13:50:58.870Z,53.19
2023-01-19T13:53:25.216Z,52.31
2023-01-19T13:56:16.513Z,51.74
2023-01-19T13:58:43.051Z,51.82
2023-01-19T14:01:22.192Z,51.12
2023-01-19T14:03:52.324Z,51.16
2023-01-19T14:06:37.451Z,51.32
2023-01-19T14:09:08.012Z,51.05
2023-01-19T14:11:34.760Z,50.90
2023-01-19T14:14:01.117Z,50.91
2023-01-19T14:16:27.585Z,51.68
2023-01-19T14:19:00.883Z,52.12
2023-01-19T14:21:36.746Z,52.39
2023-01-19T14:24:19.637Z,52.85
2023-01-19T14:26:46.665Z,52.71
2023-01-19T14:29:33.184Z,52.60
2023-01-19T14:32:14.784Z,53.00
2023-01-19T14:34:51.859Z,53.27
2023-01-19T14:37:21.249Z,53.66
2023-01-19T14:39:59.025Z,54.35
2023-01-19T14:42:30.517Z,53.52
2023-01-19T14:44:58.817Z,53.74
2023-01-19T14:47:27.245Z,54.43
2023-01-19T14:49:54.680Z,55.17
2023-01-19T14:52:29.978Z,54.96
2023-01-19T14:54:57.685Z,54.62
2023-01-19T14:57:25.908Z,55.70
2023-01-19T14:59:52.836Z,55.64
2023-01-19T15:02:19.349Z,55.92
2023-01-19T15:04:47.876Z,55.67
2023-01-19T15:07:18.877Z,55.38
2023-01-19T15:09:46.162Z,55.86
2023-01-19T15:12:17.258Z,55.25
2023-01-19T15:14:44.234Z,55.87
2023-01-19T15:17:15.632Z,55.43
2023-01-19T15:19:42.003Z,56.49
2023-01-19T15:22:12.332Z,56.10
2023-01-19T15:24:40.776Z,56.42
2023-01-19T15:27:13.259Z,56.82
2023-01-19T15:29:42.673Z,57.48
2023-01-19T15:32:11.716Z,57.45
2023-01-19T15:34:38.207Z,58.11
2023-01-19T15:37:04.878Z,58.70
2023-01-19T15:39:32.189Z,58.77
2023-01-19T15:41:58.812Z,59.24
2023-01-19T15:44:25.211Z,59.44
2023-01-19T15:46:53.865Z,59.73
2023-01-19T15:49:21.024Z,59.69
2023-01-19T15:51:47.375Z,59.69
2023-01-19T15:54:16.991Z,60.77
2023-01-19T15:56:43.428Z,60.56
2023-01-19T15:59:09.895Z,60.57
2023-01-19T16:01:36.619Z,60.59
2023-01-19T16:04:04.687Z,60.91
2023-01-19T16:06:31.278Z,61.35
2023-01-19T16:09:01.453Z,60.94
2023-01-19T16:11:29.150Z,61.25
2023-01-19T16:13:55.537Z,60.91
2023-01-19T16:16:23.389Z,61.89
2023-01-19T16:18:50.185Z,61.66
2023-01-19T16:21:16.977Z,61.90
2023-01-19T16:23:44.808Z,61.76
2023-01-19T16:26:29.880Z,62.31
2023-01-19T16:28:57.507Z,62.19
2023-01-19T16:31:23.979Z,62.15
2023-01-19T16:33:50.416Z,62.69
2023-01-19T16:36:28.013Z,62.63
2023-01-19T16:38:54.879Z,62.93
2023-01-19T16:41:21.343Z,62.74
2023-01-19T16:43:54.547Z,63.36
2023-01-19T16:46:25.911Z,63.31
2023-01-19T16:48:52.488Z,63.53
2023-01-19T16:51:19.292Z,63.69
2023-01-19T16:53:45.712Z,64.21
2023-01-19T16:56:13.284Z,64.18
2023-01-19T16:58:40.186Z,64.24
2023-01-19T17:01:11.518Z,64.27
2023-01-19T17:03:38.574Z,64.43
2023-01-19T17:06:08.421Z,64.10
2023-01-19T17:08:35.474Z,64.40
2023-01-19T17:11:08.101Z,65.51
2023-01-19T17:13:34.441Z,65.04
2023-01-19T17:16:01.572Z,64.86
2023-01-19T17:18:30.152Z,64.90
2023-01-19T17:21:02.257Z,64.34
2023-01-19T17:23:29.109Z,65.35
2023-01-19T17:25:55.787Z,65.30
2023-01-19T17:28:22.194Z,64.79
2023-01-19T17:30:51.217Z,65.59
2023-01-19T17:33:22.118Z,65.82
2023-01-19T17:35:49.039Z,65.17
2023-01-19T17:38:15.917Z,65.92
2023-01-19T17:40:42.455Z,66.04
2023-01-19T17:43:08.818Z,66.00
2023-01-19T17:45:36.257Z,65.54
2023-01-19T17:48:04.938Z,65.92
2023-01-19T17:50:37.080Z,65.92
2023-01-19T17:53:03.485Z,66.19
2023-01-19T17:55:29.812Z,66.44
2023-01-19T17:57:56.153Z,66.08
2023-01-19T18:00:22.776Z,66.30
2023-01-19T18:02:50.733Z,66.13
2023-01-19T18:05:17.517Z,66.85
2023-01-19T18:07:43.846Z,66.75
2023-01-19T18:10:10.837Z,67.12
2023-01-19T18:12:37.345Z,66.98
2023-01-19T18:15:04.489Z,67.34
2023-01-19T18:17:31.389Z,66.91
2023-01-19T18:19:57.993Z,67.63
2023-01-19T18:22:24.330Z,67.54
2023-01-19T18:24:50.706Z,67.62
2023-01-19T18:27:17.060Z,67.37
2023-01-19T18:29:43.673Z,67.17
2023-01-19T18:32:10.223Z,68.26
2023-01-19T18:34:36.894Z,67.32
2023-01-19T18:37:03.430Z,68.45
2023-01-19T18:39:32.717Z,68.02
2023-01-19T18:42:00.271Z,68.60
2023-01-19T18:44:26.709Z,68.88
2023-01-19T18:46:54.639Z,69.78
2023-01-19T18:49:21.040Z,69.68
2023-01-19T18:51:47.464Z,70.26
2023-01-19T18:54:13.934Z,70.35
2023-01-19T18:56:40.270Z,70.68
2023-01-19T18:59:06.717Z,70.42
2023-01-19T19:01:35.078Z,70.28
2023-01-19T19:04:01.663Z,69.71
2023-01-19T19:06:28.500Z,70.11
2023-01-19T19:08:56.095Z,69.82
2023-01-19T19:11:23.681Z,68.96
2023-01-19T19:13:54.015Z,68.75
2023-01-19T19:16:20.564Z,69.23
2023-01-19T19:18:50.056Z,69.24
2023-01-19T19:21:17.876Z,68.86
2023-01-19T19:23:44.331Z,68.95
2023-01-19T19:26:11.926Z,68.92
2023-01-19T19:28:39.229Z,68.46
2023-01-19T19:31:13.035Z,69.10
2023-01-19T19:33:39.890Z,68.44
2023-01-19T19:36:07.298Z,69.36
2023-01-19T19:38:33.816Z,69.52
2023-01-19T19:41:04.385Z,70.95
2023-01-19T19:43:34.212Z,70.13
2023-01-19T19:46:01.859Z,70.41
2023-01-19T19:48:28.601Z,69.94
2023-01-19T19:50:55.324Z,70.50
2023-01-19T19:53:22.216Z,70.79
2023-01-19T19:55:58.596Z,70.74
2023-01-19T19:58:25.612Z,70.79
2023-01-19T20:00:52.176Z,71.82
2023-01-19T20:03:18.989Z,72.05
2023-01-19T20:05:45.856Z,72.85
2023-01-19T20:08:12.354Z,72.37
2023-01-19T20:10:38.773Z,73.00
2023-01-19T20:13:07.008Z,73.56
2023-01-19T20:15:38.015Z,75.72
2023-01-19T20:18:07.617Z,76.00
2023-01-19T20:20:34.452Z,77.54
2023-01-19T20:23:01.600Z,78.77
2023-01-19T20:25:28.642Z,79.59
2023-01-19T20:27:55.619Z,79.25
2023-01-19T20:30:22.491Z,79.92
2023-01-19T20:32:49.017Z,80.92
2023-01-19T20:35:15.705Z,80.64
2023-01-19T20:37:42.106Z,81.86
2023-01-19T20:40:08.775Z,81.63
2023-01-19T20:42:36.689Z,81.80
2023-01-19T20:45:03.348Z,81.05
2023-01-19T20:47:29.713Z,81.85
2023-01-19T20:49:56.129Z,82.29
2023-01-19T20:52:22.559Z,81.28
2023-01-19T20:54:48.958Z,81.63
2023-01-19T20:57:15.349Z,81.13
2023-01-19T20:59:41.689Z,81.18
2023-01-19T21:02:12.399Z,81.60
2023-01-19T21:04:38.874Z,81.30
2023-01-19T21:07:05.367Z,81.14
2023-01-19T21:09:31.775Z,80.96
2023-01-19T21:11:58.203Z,81.58
2023-01-19T21:14:24.610Z,81.66
2023-01-19T21:16:51.056Z,81.62
2023-01-19T21:19:17.441Z,81.57
2023-01-19T21:21:43.790Z,81.39
2023-01-19T21:24:10.612Z,81.70
2023-01-19T21:26:37.072Z,81.19
2023-01-19T21:29:04.096Z,80.92
2023-01-19T21:31:30.848Z,81.36
2023-01-19T21:33:58.065Z,80.96
2023-01-19T21:36:24.796Z,81.49
2023-01-19T21:38:52.247Z,81.56
2023-01-19T21:41:18.921Z,81.17
2023-01-19T21:43:46.029Z,81.30
2023-01-19T21:46:22.560Z,81.11
2023-01-19T21:48:49.079Z,81.58
2023-01-19T21:51:15.705Z,81.45
2023-01-19T21:53:42.275Z,82.31
2023-01-19T21:56:09.502Z,82.35
2023-01-19T21:58:35.889Z,82.63
2023-01-19T22:01:04.109Z,82.29
2023-01-19T22:03:30.582Z,82.48
2023-01-19T22:05:57.012Z,82.77
2023-01-19T22:08:23.969Z,82.87
2023-01-19T22:10:50.316Z,82.59
2023-01-19T22:13:16.723Z,82.99
2023-01-19T22:15:43.099Z,83.46
2023-01-19T22:18:09.999Z,82.67
2023-01-19T22:20:36.349Z,83.19
2023-01-19T22:23:02.722Z,82.73
2023-01-19T22:25:29.103Z,83.11
2023-01-19T22:27:55.645Z,82.79
2023-01-19T22:30:22.068Z,82.96
2023-01-19T22:32:48.545Z,82.71
2023-01-19T22:35:15.436Z,82.92
2023-01-19T22:37:42.009Z,82.58
2023-01-19T22:40:08.705Z,82.26
2023-01-19T22:42:35.053Z,82.36
2023-01-19T22:45:01.384Z,82.40
2023-01-19T22:47:27.742Z,82.93
2023-01-19T22:49:54.112Z,82.73
2023-01-19T22:52:20.561Z,82.62
2023-01-19T22:54:46.958Z,83.09
2023-01-19T22:57:13.422Z,83.40
2023-01-19T22:59:39.874Z,83.00
2023-01-19T23:02:06.376Z,83.08
2023-01-19T23:04:32.824Z,83.38
2023-01-19T23:06:59.180Z,83.08
2023-01-19T23:09:25.560Z,82.92
2023-01-19T23:11:52.919Z,82.90
2023-01-19T23:14:20.695Z,83.09
2023-01-19T23:16:47.346Z,83.10
2023-01-19T23:19:14.270Z,82.94
2023-01-19T23:21:40.686Z,83.01
2023-01-19T23:24:07.563Z,82.89
2023-01-19T23:26:38.110Z,82.82
2023-01-19T23:29:06.813Z,83.04
2023-01-19T23:31:34.410Z,83.05
2023-01-19T23:34:02.203Z,83.10
2023-01-19T23:36:29.497Z,83.16
2023-01-19T23:38:57.264Z,82.70
2023-01-19T23:41:24.473Z,83.02
2023-01-19T23:43:51.400Z,83.90
2023-01-19T23:46:19.016Z,83.65
2023-01-19T23:48:45.633Z,83.79
2023-01-19T23:51:13.773Z,84.07
2023-01-19T23:53:40.243Z,84.31
2023-01-19T23:56:10.083Z,84.53
2023-01-19T23:58:36.436Z,85.03
